createdAt,value
2019-03-08T00:01:19.481Z,9.70
2019-03-08T00:08:21.414Z,9.60
2019-03-08T00:10:51.707Z,9.70
2019-03-08T00:16:59.205Z,9.60
2019-03-08T00:19:53.883Z,9.50
2019-03-08T00:22:24.108Z,9.50
2019-03-08T00:24:56.015Z,9.40
2019-03-08T00:27:45.202Z,9.40
2019-03-08T00:30:18.773Z,9.30
2019-03-08T00:33:01.975Z,9.30
2019-03-08T00:46:17.072Z,9.10
2019-03-08T00:48:47.663Z,9.10
2019-03-08T00:51:25.106Z,9.10
2019-03-08T00:53:55.332Z,9.10
2019-03-08T00:56:25.668Z,9.10
2019-03-08T00:58:55.916Z,9.00
2019-03-08T01:01:27.134Z,9.00
2019-03-08T01:03:57.784Z,9.00
2019-03-08T01:06:28.079Z,9.00
2019-03-08T01:08:58.322Z,9.00
2019-03-08T01:11:28.844Z,9.00
2019-03-08T01:13:59.479Z,9.00
2019-03-08T01:16:29.770Z,9.10
2019-03-08T01:19:01.016Z,9.00
2019-03-08T01:21:31.699Z,9.00
2019-03-08T01:24:01.921Z,9.00
2019-03-08T01:26:32.641Z,9.00
2019-03-08T01:29:02.933Z,8.90
2019-03-08T01:31:33.245Z,8.90
2019-03-08T01:34:03.518Z,8.80
2019-03-08T01:36:33.876Z,8.80
2019-03-08T01:39:06.667Z,8.80
2019-03-08T01:41:38.129Z,8.80
2019-03-08T01:44:09.424Z,8.80
2019-03-08T01:46:39.709Z,8.80
2019-03-08T01:49:10.359Z,8.80
2019-03-08T01:51:40.816Z,8.80
2019-03-08T01:54:11.139Z,8.80
2019-03-08T01:56:42.913Z,8.80
2019-03-08T01:59:13.565Z,8.80
2019-03-08T02:01:44.018Z,8.80
2019-03-08T02:04:15.422Z,8.80
2019-03-08T02:06:45.743Z,8.80
2019-03-08T02:09:16.350Z,8.80
2019-03-08T02:11:49.457Z,8.80
2019-03-08T02:14:19.797Z,8.90
2019-03-08T02:16:50.104Z,8.90
2019-03-08T02:19:20.401Z,9.00
2019-03-08T02:21:50.663Z,9.00
2019-03-08T02:24:20.880Z,9.10
2019-03-08T02:26:52.143Z,9.10
2019-03-08T02:29:23.577Z,9.10
2019-03-08T02:31:59.760Z,9.10
2019-03-08T02:34:31.055Z,9.20
2019-03-08T02:37:01.518Z,9.20
2019-03-08T02:39:31.830Z,9.10
2019-03-08T02:42:02.073Z,9.20
2019-03-08T02:44:32.427Z,9.20
2019-03-08T02:47:02.855Z,9.20
2019-03-08T02:49:33.224Z,9.10
2019-03-08T02:52:03.502Z,9.10
2019-03-08T02:54:34.986Z,9.10
2019-03-08T02:57:05.219Z,9.00
2019-03-08T02:59:35.606Z,9.10
2019-03-08T03:02:05.821Z,9.10
2019-03-08T03:04:36.202Z,9.00
2019-03-08T03:07:06.675Z,9.10
2019-03-08T03:09:36.927Z,9.10
2019-03-08T03:12:07.349Z,9.10
2019-03-08T03:14:44.400Z,9.20
2019-03-08T03:17:14.890Z,9.20
2019-03-08T03:19:45.566Z,9.20
2019-03-08T03:22:15.818Z,9.20
2019-03-08T03:24:46.176Z,9.20
2019-03-08T03:27:16.432Z,9.20
2019-03-08T03:29:47.076Z,9.20
2019-03-08T03:32:17.343Z,9.20
2019-03-08T03:34:47.692Z,9.20
2019-03-08T03:37:17.932Z,9.20
2019-03-08T03:39:48.284Z,9.20
2019-03-08T03:42:18.547Z,9.20
2019-03-08T03:44:48.873Z,9.20
2019-03-08T03:47:19.132Z,9.20
2019-03-08T03:49:49.461Z,9.20
2019-03-08T03:52:19.758Z,9.10
2019-03-08T03:54:50.216Z,9.10
2019-03-08T03:57:20.519Z,9.10
2019-03-08T03:59:51.150Z,9.10
2019-03-08T04:02:22.216Z,9.10
2019-03-08T04:04:52.690Z,9.10
2019-03-08T04:07:22.996Z,9.10
2019-03-08T04:09:54.244Z,9.00
2019-03-08T04:12:24.552Z,9.00
2019-03-08T04:15:01.440Z,9.10
2019-03-08T04:17:33.085Z,9.10
2019-03-08T04:20:04.492Z,9.10
2019-03-08T04:22:34.870Z,9.10
2019-03-08T04:25:07.040Z,9.10
2019-03-08T04:27:37.325Z,9.00
2019-03-08T04:30:10.758Z,9.10
2019-03-08T04:32:40.512Z,9.10
2019-03-08T04:35:10.624Z,9.10
2019-03-08T04:37:40.938Z,9.10
2019-03-08T04:40:12.625Z,9.10
2019-03-08T04:42:42.964Z,9.10
2019-03-08T04:45:17.927Z,9.10
2019-03-08T04:47:48.518Z,9.10
2019-03-08T04:50:19.914Z,9.10
2019-03-08T04:52:50.188Z,9.10
2019-03-08T04:55:21.430Z,9.10
2019-03-08T04:57:51.858Z,9.00
2019-03-08T05:00:25.114Z,9.00
2019-03-08T05:02:54.524Z,9.00
2019-03-08T05:05:25.474Z,9.10
2019-03-08T05:07:55.766Z,9.10
2019-03-08T05:10:26.348Z,9.10
2019-03-08T05:12:56.677Z,9.10
2019-03-08T05:15:26.974Z,9.10
2019-03-08T05:17:58.488Z,9.10
2019-03-08T05:20:30.093Z,9.10
2019-03-08T05:23:00.700Z,9.10
2019-03-08T05:25:30.941Z,9.10
2019-03-08T05:28:01.277Z,9.10
2019-03-08T05:30:31.527Z,9.10
2019-03-08T05:33:01.811Z,9.10
2019-03-08T05:35:32.583Z,9.10
2019-03-08T05:38:02.857Z,9.10
2019-03-08T05:40:33.151Z,9.20
2019-03-08T05:43:04.125Z,9.20
2019-03-08T05:45:34.567Z,9.20
2019-03-08T05:48:04.918Z,9.30
2019-03-08T05:50:35.304Z,9.30
2019-03-08T05:53:07.107Z,9.30
2019-03-08T05:55:37.406Z,9.30
2019-03-08T05:58:07.811Z,9.30
2019-03-08T06:00:38.146Z,9.30
2019-03-08T06:03:08.652Z,9.40
2019-03-08T06:05:39.144Z,9.50
2019-03-08T06:08:09.502Z,9.50
2019-03-08T06:10:39.757Z,9.50
2019-03-08T06:13:10.616Z,9.50
2019-03-08T06:15:42.303Z,9.60
2019-03-08T06:18:13.210Z,9.60
2019-03-08T06:20:43.467Z,9.60
2019-03-08T06:23:13.898Z,9.60
2019-03-08T06:25:44.301Z,9.60
2019-03-08T06:28:14.621Z,9.60
2019-03-08T06:30:44.828Z,9.60
2019-03-08T06:33:17.020Z,9.70
2019-03-08T06:35:47.291Z,9.70
2019-03-08T06:38:17.538Z,9.80
2019-03-08T06:40:47.828Z,9.80
2019-03-08T06:43:18.161Z,10.00
2019-03-08T06:45:52.838Z,10.00
2019-03-08T06:48:22.279Z,10.10
2019-03-08T06:50:52.295Z,10.10
2019-03-08T06:53:22.618Z,10.20
2019-03-08T06:55:52.876Z,10.30
2019-03-08T06:58:34.031Z,10.30
2019-03-08T07:01:05.851Z,10.40
2019-03-08T07:03:36.175Z,10.50
2019-03-08T07:06:06.777Z,10.50
2019-03-08T07:08:38.590Z,10.50
2019-03-08T07:11:08.847Z,10.60
2019-03-08T07:13:39.767Z,10.60
2019-03-08T07:16:13.013Z,10.70
2019-03-08T07:18:42.108Z,10.70
2019-03-08T07:21:32.627Z,10.70
2019-03-08T07:24:07.405Z,10.80
2019-03-08T07:26:39.308Z,10.80
2019-03-08T07:29:20.962Z,10.80
2019-03-08T07:31:52.858Z,10.90
2019-03-08T07:34:43.163Z,10.90
2019-03-08T07:37:18.078Z,10.90
2019-03-08T07:39:49.940Z,11.00
2019-03-08T07:42:38.504Z,11.00
2019-03-08T07:45:28.119Z,11.10
2019-03-08T07:48:15.284Z,11.10
2019-03-08T07:50:47.542Z,11.20
2019-03-08T07:53:38.427Z,11.20
2019-03-08T07:56:22.325Z,11.20
2019-03-08T07:59:06.128Z,11.30
2019-03-08T08:01:38.007Z,11.30
2019-03-08T08:04:09.892Z,11.30
2019-03-08T08:06:53.684Z,11.40
2019-03-08T08:09:25.591Z,11.40
2019-03-08T08:12:07.008Z,11.50
2019-03-08T08:14:54.120Z,11.60
2019-03-08T08:17:28.695Z,11.60
2019-03-08T08:20:00.629Z,11.70
2019-03-08T08:22:41.743Z,11.80
2019-03-08T08:25:25.744Z,11.80
2019-03-08T08:28:07.388Z,11.80
2019-03-08T08:30:45.291Z,11.90
2019-03-08T08:33:26.367Z,12.00
2019-03-08T08:36:00.903Z,12.00
2019-03-08T08:38:42.749Z,12.00
2019-03-08T08:41:26.959Z,12.00
2019-03-08T08:43:59.175Z,12.10
2019-03-08T08:46:37.579Z,12.10
2019-03-08T08:49:18.631Z,12.20
2019-03-08T08:52:07.095Z,12.30
2019-03-08T08:54:48.276Z,12.30
2019-03-08T08:57:22.829Z,12.30
2019-03-08T08:59:57.320Z,12.30
2019-03-08T09:02:32.218Z,12.40
2019-03-08T09:05:04.082Z,12.50
2019-03-08T09:07:39.296Z,12.60
2019-03-08T09:10:15.380Z,12.70
2019-03-08T09:12:50.003Z,12.80
2019-03-08T09:15:34.531Z,12.80
2019-03-08T09:18:07.111Z,12.90
2019-03-08T09:20:48.087Z,12.90
2019-03-08T09:23:20.702Z,12.80
2019-03-08T09:25:52.800Z,12.70
2019-03-08T09:28:24.672Z,12.70
2019-03-08T09:30:59.471Z,12.60
2019-03-08T09:33:40.480Z,12.50
2019-03-08T09:36:12.380Z,12.50
2019-03-08T09:38:44.243Z,12.40
2019-03-08T09:41:16.225Z,12.40
2019-03-08T09:43:48.093Z,12.30
2019-03-08T09:46:20.904Z,12.20
2019-03-08T09:49:01.782Z,12.10
2019-03-08T09:51:33.694Z,12.10
2019-03-08T09:54:05.600Z,12.10
2019-03-08T09:56:37.498Z,12.10
2019-03-08T09:59:27.462Z,12.00
2019-03-08T10:01:59.783Z,12.00
2019-03-08T10:04:43.690Z,12.00
2019-03-08T10:07:22.006Z,12.10
2019-03-08T10:10:00.366Z,12.00
2019-03-08T10:12:35.270Z,12.00
2019-03-08T10:15:29.748Z,12.00
2019-03-08T10:18:16.491Z,12.00
2019-03-08T10:21:05.660Z,12.00
2019-03-08T10:23:51.218Z,12.00
2019-03-08T10:26:38.861Z,12.10
2019-03-08T10:29:10.717Z,12.10
2019-03-08T10:31:58.995Z,12.20
2019-03-08T10:34:36.842Z,12.20
2019-03-08T10:37:08.744Z,12.20
2019-03-08T10:39:58.797Z,12.30
2019-03-08T10:42:39.659Z,12.30
2019-03-08T10:45:12.213Z,12.50
2019-03-08T10:47:55.944Z,12.50
2019-03-08T10:50:30.105Z,12.60
2019-03-08T10:53:05.096Z,12.60
2019-03-08T10:55:53.415Z,12.60
2019-03-08T10:58:41.715Z,12.70
2019-03-08T11:01:30.238Z,12.80
2019-03-08T11:04:02.203Z,12.80
2019-03-08T11:06:37.991Z,12.90
2019-03-08T11:09:12.912Z,12.90
2019-03-08T11:11:44.774Z,12.90
2019-03-08T11:14:19.571Z,12.90
2019-03-08T11:16:57.430Z,12.90
2019-03-08T11:19:29.316Z,12.90
2019-03-08T11:22:10.426Z,12.90
2019-03-08T11:24:42.308Z,12.90
2019-03-08T11:27:14.214Z,12.90
2019-03-08T11:29:46.082Z,12.90
2019-03-08T11:32:23.735Z,12.90
2019-03-08T11:34:58.654Z,12.80
2019-03-08T11:37:37.735Z,12.90
2019-03-08T11:40:12.540Z,12.90
2019-03-08T11:42:53.252Z,12.90
2019-03-08T11:45:28.582Z,12.80
2019-03-08T11:48:12.689Z,12.80
2019-03-08T11:51:00.890Z,12.70
2019-03-08T11:53:42.056Z,12.60
2019-03-08T11:56:22.776Z,12.60
2019-03-08T11:59:03.714Z,12.60
2019-03-08T12:01:41.653Z,12.30
2019-03-08T12:04:13.530Z,12.60
2019-03-08T12:06:45.522Z,12.50
2019-03-08T12:09:33.695Z,12.50
2019-03-08T12:12:08.591Z,12.40
2019-03-08T12:14:45.750Z,12.30
2019-03-08T12:17:23.749Z,12.20
2019-03-08T12:19:55.682Z,12.20
2019-03-08T12:22:33.721Z,12.20
2019-03-08T12:25:15.800Z,12.10
2019-03-08T12:27:56.354Z,12.10
2019-03-08T12:30:44.901Z,12.10
2019-03-08T12:33:22.675Z,12.20
2019-03-08T12:36:04.282Z,12.10
2019-03-08T12:38:42.299Z,12.20
2019-03-08T12:41:26.359Z,12.20
2019-03-08T12:44:13.365Z,12.20
2019-03-08T12:46:53.691Z,12.20
2019-03-08T12:49:37.768Z,12.20
2019-03-08T12:52:10.269Z,12.30
2019-03-08T12:54:57.384Z,12.30
2019-03-08T12:57:35.047Z,12.30
2019-03-08T13:00:15.888Z,12.40
2019-03-08T13:02:57.350Z,12.30
2019-03-08T13:05:29.188Z,12.20
2019-03-08T13:08:02.330Z,12.20
2019-03-08T13:10:32.643Z,12.20
2019-03-08T13:13:02.971Z,12.10
2019-03-08T13:15:33.155Z,12.10
2019-03-08T13:18:03.455Z,12.10
2019-03-08T13:20:33.842Z,12.10
2019-03-08T13:23:04.342Z,12.10
2019-03-08T13:25:34.634Z,12.10
2019-03-08T13:28:04.923Z,12.10
2019-03-08T13:30:35.211Z,12.00
2019-03-08T13:33:05.555Z,12.10
2019-03-08T13:35:35.789Z,12.00
2019-03-08T13:38:06.956Z,12.00
2019-03-08T13:40:37.561Z,12.10
2019-03-08T13:43:07.871Z,12.10
2019-03-08T13:45:38.062Z,12.10
2019-03-08T13:48:08.418Z,12.10
2019-03-08T13:50:38.695Z,12.00
2019-03-08T13:53:09.015Z,12.00
2019-03-08T13:55:39.267Z,12.00
2019-03-08T13:58:09.575Z,12.00
2019-03-08T14:00:39.867Z,11.90
2019-03-08T14:03:10.636Z,11.90
2019-03-08T14:05:41.074Z,11.90
2019-03-08T14:08:11.362Z,11.90
2019-03-08T14:10:41.607Z,11.90
2019-03-08T14:13:11.978Z,11.90
2019-03-08T14:15:42.391Z,11.90
2019-03-08T14:18:12.715Z,11.90
2019-03-08T14:20:43.055Z,11.90
2019-03-08T14:23:13.685Z,12.00
2019-03-08T14:25:44.056Z,12.00
2019-03-08T14:28:15.635Z,12.00
2019-03-08T14:30:57.374Z,12.00
2019-03-08T14:33:20.601Z,12.00
2019-03-08T14:35:50.876Z,12.00
2019-03-08T14:40:58.777Z,12.00
2019-03-08T14:43:41.119Z,12.00
2019-03-08T14:46:22.159Z,11.90
2019-03-08T14:48:52.607Z,11.90
2019-03-08T14:51:22.886Z,11.90
2019-03-08T14:53:53.169Z,11.90
2019-03-08T14:56:23.557Z,12.00
2019-03-08T14:58:53.874Z,12.00
2019-03-08T15:01:24.257Z,12.00
2019-03-08T15:03:56.607Z,12.00
2019-03-08T15:06:27.968Z,12.00
2019-03-08T15:08:58.520Z,12.00
2019-03-08T15:11:29.143Z,10.70
2019-03-08T15:13:59.447Z,12.00
2019-03-08T15:16:29.771Z,12.00
2019-03-08T15:19:03.756Z,12.00
2019-03-08T15:21:33.186Z,11.90
2019-03-08T15:24:04.724Z,11.90
2019-03-08T15:26:35.011Z,11.90
2019-03-08T15:29:05.335Z,11.90
2019-03-08T15:31:35.643Z,11.90
2019-03-08T15:34:06.052Z,11.90
2019-03-08T15:36:36.498Z,11.90
2019-03-08T15:39:10.313Z,11.90
2019-03-08T15:41:40.573Z,11.90
2019-03-08T15:44:10.816Z,11.80
2019-03-08T15:46:41.523Z,11.80
2019-03-08T15:49:11.809Z,11.80
2019-03-08T15:51:42.107Z,11.80
2019-03-08T15:54:12.798Z,11.70
2019-03-08T15:56:43.027Z,11.70
2019-03-08T15:59:13.352Z,11.60
2019-03-08T16:01:43.655Z,11.50
2019-03-08T16:04:13.931Z,11.40
2019-03-08T16:06:45.467Z,11.30
2019-03-08T16:09:16.056Z,11.20
2019-03-08T16:11:46.374Z,11.20
2019-03-08T16:14:16.791Z,11.10
2019-03-08T16:16:47.056Z,11.00
2019-03-08T16:19:20.964Z,11.00
2019-03-08T16:21:50.561Z,10.80
2019-03-08T16:24:21.138Z,10.60
2019-03-08T16:26:51.380Z,10.50
2019-03-08T16:29:21.634Z,10.40
2019-03-08T16:31:56.025Z,10.30
2019-03-08T16:34:26.121Z,10.00
2019-03-08T16:36:58.009Z,9.80
2019-03-08T16:39:33.595Z,9.50
2019-03-08T16:42:14.436Z,9.40
2019-03-08T16:45:00.960Z,9.20
2019-03-08T16:47:42.495Z,9.00
2019-03-08T16:50:17.828Z,8.90
2019-03-08T16:52:49.444Z,8.80
2019-03-08T16:55:22.863Z,8.70
2019-03-08T16:58:11.341Z,8.60
2019-03-08T17:00:55.220Z,8.60
2019-03-08T17:03:27.128Z,8.50
2019-03-08T17:06:08.037Z,8.50
2019-03-08T17:08:52.943Z,8.50
2019-03-08T17:11:24.844Z,8.50
2019-03-08T17:14:09.064Z,8.50
2019-03-08T17:16:42.881Z,8.50
2019-03-08T17:19:17.267Z,8.50
2019-03-08T17:21:49.993Z,8.40
2019-03-08T17:24:24.788Z,8.40
2019-03-08T17:26:56.678Z,8.40
2019-03-08T17:29:29.843Z,8.40
2019-03-08T17:32:07.710Z,8.30
2019-03-08T17:34:56.180Z,8.30
2019-03-08T17:37:44.387Z,8.30
2019-03-08T17:40:21.865Z,8.30
2019-03-08T17:42:56.595Z,8.20
2019-03-08T17:45:34.733Z,8.20
2019-03-08T17:48:06.788Z,8.10
2019-03-08T17:50:47.321Z,8.10
2019-03-08T17:53:40.803Z,8.10
2019-03-08T17:56:12.855Z,8.10
2019-03-08T17:58:51.160Z,8.10
2019-03-08T18:01:22.213Z,8.10
2019-03-08T18:04:02.872Z,8.00
2019-03-08T18:06:39.284Z,8.00
2019-03-08T18:09:12.385Z,8.00
2019-03-08T18:11:48.652Z,8.00
2019-03-08T18:14:20.584Z,8.00
2019-03-08T18:16:52.413Z,8.00
2019-03-08T18:19:24.470Z,8.00
2019-03-08T18:21:58.870Z,8.00
2019-03-08T18:24:30.869Z,8.00
2019-03-08T18:27:08.794Z,8.00
2019-03-08T18:29:43.578Z,8.00
2019-03-08T18:32:27.206Z,8.00
2019-03-08T18:35:15.475Z,8.00
2019-03-08T18:37:47.503Z,8.00
2019-03-08T18:40:27.879Z,8.00
2019-03-08T18:43:00.335Z,8.00
2019-03-08T18:45:38.256Z,7.90
2019-03-08T18:48:12.943Z,7.90
2019-03-08T18:50:50.901Z,7.90
2019-03-08T18:53:23.114Z,7.80
2019-03-08T18:56:12.899Z,7.80
2019-03-08T18:58:55.268Z,7.80
2019-03-08T19:01:41.115Z,7.70
2019-03-08T19:04:14.673Z,7.70
2019-03-08T19:06:52.528Z,7.60
2019-03-08T19:09:41.315Z,7.60
2019-03-08T19:12:18.858Z,7.60
2019-03-08T19:14:48.340Z,7.50
2019-03-08T19:17:20.608Z,7.50
2019-03-08T19:19:58.462Z,7.50
2019-03-08T19:23:04.854Z,7.50
2019-03-08T19:25:55.226Z,7.50
2019-03-08T19:28:34.224Z,7.50
2019-03-08T19:31:06.090Z,7.50
2019-03-08T19:33:46.845Z,7.50
2019-03-08T19:36:35.148Z,7.50
2019-03-08T19:39:11.450Z,7.60
2019-03-08T19:41:43.523Z,7.60
2019-03-08T19:44:34.085Z,7.60
2019-03-08T19:47:09.074Z,7.60
2019-03-08T19:49:41.281Z,7.60
2019-03-08T19:52:23.916Z,7.60
2019-03-08T19:54:58.983Z,7.60
2019-03-08T19:57:36.975Z,7.60
2019-03-08T20:00:32.658Z,7.50
2019-03-08T20:03:07.551Z,7.50
2019-03-08T20:05:55.856Z,7.50
2019-03-08T20:08:36.680Z,7.50
2019-03-08T20:11:08.611Z,7.40
2019-03-08T20:13:56.622Z,7.40
2019-03-08T20:16:45.752Z,7.30
2019-03-08T20:19:18.101Z,7.30
2019-03-08T20:21:53.132Z,7.30
2019-03-08T20:24:40.184Z,7.20
2019-03-08T20:27:20.744Z,7.20
2019-03-08T20:29:52.820Z,7.20
2019-03-08T20:32:24.783Z,7.20
2019-03-08T20:35:02.641Z,7.20
2019-03-08T20:37:38.955Z,7.20
2019-03-08T20:40:13.737Z,7.10
2019-03-08T20:42:55.913Z,7.20
2019-03-08T20:45:46.020Z,7.20
2019-03-08T20:48:16.458Z,7.20
2019-03-08T20:50:46.783Z,7.10
2019-03-08T20:53:17.224Z,7.10
2019-03-08T20:55:47.722Z,7.10
2019-03-08T20:58:18.048Z,7.10
2019-03-08T21:00:48.361Z,7.00
2019-03-08T21:03:18.796Z,7.00
2019-03-08T21:05:50.730Z,7.00
2019-03-08T21:08:21.318Z,7.00
2019-03-08T21:10:51.624Z,7.00
2019-03-08T21:13:21.942Z,7.00
2019-03-08T21:15:52.492Z,7.00
2019-03-08T21:18:22.821Z,7.10
2019-03-08T21:20:53.140Z,7.10
2019-03-08T21:23:23.458Z,7.10
2019-03-08T21:25:55.066Z,7.10
2019-03-08T21:28:25.834Z,7.10
2019-03-08T21:30:56.560Z,7.10
2019-03-08T21:33:26.866Z,7.10
2019-03-08T21:35:57.396Z,7.10
2019-03-08T21:38:27.616Z,7.10
2019-03-08T21:40:58.219Z,7.10
2019-03-08T21:43:28.786Z,7.00
2019-03-08T21:45:58.988Z,7.00
2019-03-08T21:48:29.323Z,7.00
2019-03-08T21:50:59.543Z,7.00
2019-03-08T21:53:29.817Z,6.90
2019-03-08T21:56:00.003Z,6.90
2019-03-08T21:58:30.333Z,6.90
2019-03-08T22:01:00.629Z,6.80
2019-03-08T22:03:31.343Z,6.80
2019-03-08T22:06:01.538Z,6.80
2019-03-08T22:08:31.878Z,6.80
2019-03-08T22:11:07.019Z,6.70
2019-03-08T22:13:37.360Z,6.70
2019-03-08T22:16:07.635Z,6.70
2019-03-08T22:18:38.071Z,6.70
2019-03-08T22:21:08.756Z,6.60
2019-03-08T22:23:39.055Z,6.60
2019-03-08T22:26:09.349Z,6.60
2019-03-08T22:28:40.644Z,6.60
2019-03-08T22:31:10.948Z,6.60
2019-03-08T22:33:42.338Z,6.60
2019-03-08T22:36:12.849Z,6.60
2019-03-08T22:38:43.252Z,6.60
2019-03-08T22:41:13.554Z,6.60
2019-03-08T22:43:43.772Z,6.60
2019-03-08T22:46:14.178Z,6.70
2019-03-08T22:48:44.464Z,6.60
2019-03-08T22:51:14.760Z,6.70
2019-03-08T22:53:45.356Z,6.70
2019-03-08T22:56:15.614Z,6.80
2019-03-08T22:58:46.547Z,6.80
2019-03-08T23:01:19.958Z,6.80
2019-03-08T23:03:52.415Z,6.80
2019-03-08T23:06:22.680Z,6.80
2019-03-08T23:08:52.866Z,6.80
2019-03-08T23:11:23.673Z,6.80
2019-03-08T23:13:54.174Z,6.80
2019-03-08T23:16:32.130Z,6.80
2019-03-08T23:19:02.449Z,6.80
2019-03-08T23:21:33.141Z,6.80
2019-03-08T23:24:05.998Z,6.90
2019-03-08T23:26:54.756Z,6.90
2019-03-08T23:29:35.636Z,6.90
2019-03-08T23:32:19.612Z,6.90
2019-03-08T23:34:49.147Z,7.00
2019-03-08T23:37:19.229Z,7.00
2019-03-08T23:39:49.759Z,7.00
2019-03-08T23:42:20.050Z,7.00
2019-03-08T23:44:51.479Z,7.00
2019-03-08T23:47:21.881Z,7.10
2019-03-08T23:49:52.244Z,7.10
2019-03-08T23:52:22.524Z,7.10
2019-03-08T23:54:52.936Z,7.10
2019-03-08T23:57:23.132Z,7.10
2019-03-08T23:59:53.380Z,7.20
